createdAt,value
2023-05-19T00:03:27.960Z,26.12
2023-05-19T00:13:31.242Z,26.09
2023-05-19T00:34:27.237Z,26.06
2023-05-19T00:44:30.383Z,26.05
2023-05-19T00:54:33.572Z,26.05
2023-05-19T01:04:36.724Z,26.05
2023-05-19T01:14:39.930Z,26.02
2023-05-19T01:24:43.085Z,26.02
2023-05-19T01:34:46.295Z,26.02
2023-05-19T01:44:49.448Z,25.99
2023-05-19T01:54:52.659Z,25.99
2023-05-19T02:04:55.957Z,25.98
2023-05-19T02:14:59.179Z,25.97
2023-05-19T02:25:02.341Z,25.94
2023-05-19T02:35:05.550Z,25.94
2023-05-19T02:45:08.700Z,25.91
2023-05-19T02:55:11.911Z,25.91
2023-05-19T03:05:15.079Z,25.91
2023-05-19T03:15:18.259Z,25.90
2023-05-19T03:25:21.414Z,25.89
2023-05-19T03:35:24.613Z,25.87
2023-05-19T03:45:27.830Z,25.84
2023-05-19T03:55:31.125Z,25.86
2023-05-19T04:05:34.280Z,25.84
2023-05-19T04:15:37.498Z,25.83
2023-05-19T04:25:40.691Z,25.82
2023-05-19T04:35:43.901Z,25.80
2023-05-19T04:45:47.081Z,25.80
2023-05-19T04:55:50.327Z,25.86
2023-05-19T05:05:53.476Z,25.91
2023-05-19T05:15:56.711Z,26.01
2023-05-19T05:25:59.867Z,26.15
2023-05-19T05:36:03.067Z,26.36
2023-05-19T05:46:06.309Z,26.65
2023-05-19T05:56:09.525Z,26.68
2023-05-19T06:06:12.670Z,26.62
2023-05-19T06:16:15.883Z,26.57
2023-05-19T06:26:19.049Z,26.55
2023-05-19T06:36:22.250Z,26.55
2023-05-19T06:46:25.441Z,26.55
2023-05-19T06:56:28.642Z,26.58
2023-05-19T07:06:31.785Z,26.59
2023-05-19T07:16:34.989Z,26.62
2023-05-19T07:26:38.175Z,26.65
2023-05-19T07:36:41.366Z,26.64
2023-05-19T07:46:44.532Z,26.67
2023-05-19T07:56:47.729Z,26.67
2023-05-19T08:06:50.877Z,26.69
2023-05-19T08:16:54.077Z,26.73
2023-05-19T08:26:57.238Z,26.73
2023-05-19T08:37:00.428Z,26.76
2023-05-19T08:47:03.658Z,26.77
2023-05-19T08:57:06.911Z,26.76
2023-05-19T09:07:10.078Z,26.74
2023-05-19T09:17:13.353Z,26.74
2023-05-19T09:27:16.592Z,26.74
2023-05-19T09:37:19.801Z,26.76
2023-05-19T09:47:22.993Z,26.76
2023-05-19T09:57:26.210Z,26.74
2023-05-19T10:07:29.371Z,26.74
2023-05-19T10:17:32.615Z,26.72
2023-05-19T10:27:35.785Z,26.73
2023-05-19T10:37:38.979Z,26.69
2023-05-19T10:47:42.180Z,26.68
2023-05-19T10:57:45.388Z,26.68
2023-05-19T11:07:48.542Z,26.67
2023-05-19T11:17:51.781Z,26.68
2023-05-19T11:27:54.982Z,26.64
2023-05-19T11:37:58.189Z,26.62
2023-05-19T11:48:03.157Z,26.64
2023-05-19T11:58:05.626Z,26.62
2023-05-19T12:08:06.656Z,26.62
2023-05-19T12:18:09.895Z,26.62
2023-05-19T12:28:13.057Z,26.59
2023-05-19T12:38:16.267Z,26.61
2023-05-19T12:48:19.474Z,26.61
2023-05-19T12:58:22.769Z,26.61
2023-05-19T13:08:25.930Z,26.59
2023-05-19T13:18:29.143Z,26.59
2023-05-19T13:28:32.327Z,26.59
2023-05-19T13:38:35.524Z,26.58
2023-05-19T13:48:38.752Z,26.59
2023-05-19T13:58:41.965Z,26.59
2023-05-19T14:08:45.130Z,26.58
2023-05-19T14:18:48.377Z,26.57
2023-05-19T14:28:51.543Z,26.57
2023-05-19T14:38:55.006Z,26.58
2023-05-19T14:48:58.153Z,26.58
2023-05-19T14:59:01.374Z,26.57
2023-05-19T15:09:04.536Z,26.58
2023-05-19T15:19:07.758Z,26.55
2023-05-19T15:29:10.978Z,26.57
2023-05-19T15:39:14.177Z,26.58
2023-05-19T15:49:17.328Z,26.58
2023-05-19T15:59:20.527Z,26.59
2023-05-19T16:09:23.714Z,26.57
2023-05-19T16:19:27.122Z,26.58
2023-05-19T16:29:30.418Z,26.57
2023-05-19T16:39:33.617Z,26.57
2023-05-19T16:49:36.760Z,26.57
2023-05-19T16:59:40.010Z,26.57
2023-05-19T17:09:43.162Z,26.57
2023-05-19T17:19:46.336Z,26.58
2023-05-19T17:29:49.484Z,26.57
2023-05-19T17:39:52.825Z,26.57
2023-05-19T17:49:56.046Z,26.55
2023-05-19T17:59:59.233Z,26.55
2023-05-19T18:10:02.387Z,26.55
2023-05-19T18:20:05.682Z,26.55
2023-05-19T18:30:08.835Z,26.55
2023-05-19T18:40:12.034Z,26.54
2023-05-19T18:50:15.210Z,26.54
2023-05-19T19:00:18.389Z,26.52
2023-05-19T19:10:21.549Z,26.52
2023-05-19T19:20:24.734Z,26.54
2023-05-19T19:30:27.900Z,26.50
2023-05-19T19:40:31.141Z,26.50
2023-05-19T19:50:34.710Z,26.50
2023-05-19T20:00:38.067Z,26.49
2023-05-19T20:10:41.217Z,26.49
2023-05-19T20:20:44.527Z,26.49
2023-05-19T20:30:47.688Z,26.47
2023-05-19T20:40:50.921Z,26.47
2023-05-19T20:50:54.094Z,26.44
2023-05-19T21:00:57.419Z,26.44
2023-05-19T21:11:01.044Z,26.46
2023-05-19T21:21:04.233Z,26.44
2023-05-19T21:31:07.440Z,26.44
2023-05-19T21:41:10.638Z,26.44
2023-05-19T21:51:13.799Z,26.42
2023-05-19T22:01:17.122Z,26.42
2023-05-19T22:11:20.329Z,26.42
2023-05-19T22:21:23.541Z,26.43
2023-05-19T22:31:26.694Z,26.42
2023-05-19T22:41:29.896Z,26.40
2023-05-19T22:51:33.045Z,26.40
2023-05-19T23:01:36.338Z,26.40
2023-05-19T23:11:39.581Z,26.39
2023-05-19T23:21:42.785Z,26.39
2023-05-19T23:31:45.992Z,26.36
2023-05-19T23:41:49.246Z,26.37
2023-05-19T23:51:52.420Z,26.36
